createdAt,value
2019-01-13T00:00:34.549Z,0
2019-01-13T00:01:34.247Z,0
2019-01-13T00:02:34.027Z,0
2019-01-13T00:03:33.978Z,0
2019-01-13T00:04:34.463Z,0
2019-01-13T00:05:34.520Z,0
2019-01-13T00:06:34.189Z,0
2019-01-13T00:07:34.181Z,0
2019-01-13T00:08:34.168Z,0
2019-01-13T00:09:34.143Z,0
2019-01-13T00:10:34.131Z,0
2019-01-13T00:11:33.637Z,0
2019-01-13T00:12:40.333Z,0
2019-01-13T00:13:33.862Z,0
2019-01-13T00:14:34.361Z,0
2019-01-13T00:15:34.101Z,0
2019-01-13T00:16:34.346Z,0
2019-01-13T00:17:34.080Z,0
2019-01-13T00:18:33.832Z,0
2019-01-13T00:19:33.897Z,0
2019-01-13T00:20:34.041Z,0
2019-01-13T00:21:34.039Z,0
2019-01-13T00:22:34.270Z,0
2019-01-13T00:23:34.018Z,0
2019-01-13T00:24:34.260Z,0
2019-01-13T00:25:33.984Z,0
2019-01-13T00:26:34.328Z,0
2019-01-13T00:27:34.005Z,0
2019-01-13T00:28:33.964Z,0
2019-01-13T00:29:33.966Z,0
2019-01-13T00:30:33.975Z,0
2019-01-13T00:31:33.963Z,0
2019-01-13T00:32:33.693Z,0
2019-01-13T00:33:33.718Z,0
2019-01-13T00:34:33.409Z,0
2019-01-13T00:35:34.456Z,0
2019-01-13T00:36:33.390Z,0
2019-01-13T00:37:34.131Z,0
2019-01-13T00:38:33.885Z,0
2019-01-13T00:39:33.648Z,0
2019-01-13T00:40:33.859Z,0
2019-01-13T00:41:33.896Z,0
2019-01-13T00:42:33.854Z,0
2019-01-13T00:43:34.082Z,0
2019-01-13T00:44:33.579Z,0
2019-01-13T00:45:33.383Z,0
2019-01-13T00:46:33.816Z,0
2019-01-13T00:47:33.551Z,0
2019-01-13T00:48:34.051Z,0
2019-01-13T00:49:33.763Z,0
2019-01-13T00:50:33.757Z,0
2019-01-13T00:51:34.027Z,0
2019-01-13T00:52:33.503Z,0
2019-01-13T00:53:34.031Z,0
2019-01-13T00:54:33.249Z,0
2019-01-13T00:55:33.741Z,0
2019-01-13T00:56:33.764Z,0
2019-01-13T00:57:33.455Z,0
2019-01-13T00:58:33.804Z,0
2019-01-13T00:59:33.437Z,0
2019-01-13T01:00:33.922Z,0
2019-01-13T01:01:33.651Z,0
2019-01-13T01:02:33.646Z,0
2019-01-13T01:03:33.752Z,0
2019-01-13T01:04:33.641Z,0
2019-01-13T01:05:33.376Z,0
2019-01-13T01:06:33.846Z,0
2019-01-13T01:07:33.849Z,0
2019-01-13T01:08:33.842Z,0
2019-01-13T01:09:33.365Z,0
2019-01-13T01:10:33.573Z,0
2019-01-13T01:11:33.321Z,0
2019-01-13T01:12:33.557Z,0
2019-01-13T01:13:33.556Z,0
2019-01-13T01:14:33.612Z,0
2019-01-13T01:15:33.788Z,0
2019-01-13T01:16:33.017Z,0
2019-01-13T01:17:33.327Z,0
2019-01-13T01:18:33.490Z,0
2019-01-13T01:19:33.242Z,0
2019-01-13T01:20:33.536Z,0
2019-01-13T01:21:33.321Z,0
2019-01-13T01:22:33.209Z,0
2019-01-13T01:23:33.219Z,0
2019-01-13T01:24:33.202Z,0
2019-01-13T01:25:33.680Z,0
2019-01-13T01:26:33.676Z,0
2019-01-13T01:27:33.425Z,0
2019-01-13T01:28:33.178Z,0
2019-01-13T01:29:33.666Z,0
2019-01-13T01:30:40.593Z,0
2019-01-13T01:31:33.390Z,0
2019-01-13T01:32:33.120Z,0
2019-01-13T01:33:33.613Z,0
2019-01-13T01:34:34.366Z,0
2019-01-13T01:35:33.587Z,0
2019-01-13T01:36:33.743Z,0
2019-01-13T01:37:33.079Z,0
2019-01-13T01:38:33.606Z,0
2019-01-13T01:39:33.300Z,0
2019-01-13T01:40:33.043Z,0
2019-01-13T01:41:33.288Z,0
2019-01-13T01:42:33.047Z,0
2019-01-13T01:43:33.270Z,0
2019-01-13T01:44:33.505Z,0
2019-01-13T01:45:33.248Z,0
2019-01-13T01:46:33.277Z,0
2019-01-13T01:47:33.481Z,0
2019-01-13T01:48:33.469Z,0
2019-01-13T01:49:33.215Z,0
2019-01-13T01:50:32.948Z,0
2019-01-13T01:51:33.209Z,0
2019-01-13T01:52:33.181Z,0
2019-01-13T01:53:33.197Z,0
2019-01-13T01:54:33.181Z,0
2019-01-13T01:55:33.425Z,0
2019-01-13T01:56:32.923Z,0
2019-01-13T01:57:33.427Z,0
2019-01-13T01:58:32.893Z,0
2019-01-13T01:59:33.123Z,0
2019-01-13T02:00:33.146Z,0
2019-01-13T02:01:33.143Z,0
2019-01-13T02:02:32.855Z,0
2019-01-13T02:03:33.454Z,0
2019-01-13T02:04:32.726Z,0
2019-01-13T02:05:33.151Z,0
2019-01-13T02:06:33.266Z,0
2019-01-13T02:07:33.075Z,0
2019-01-13T02:08:33.194Z,0
2019-01-13T02:09:33.280Z,0
2019-01-13T02:10:33.076Z,0
2019-01-13T02:11:33.023Z,0
2019-01-13T02:12:32.768Z,0
2019-01-13T02:13:32.762Z,0
2019-01-13T02:14:32.736Z,0
2019-01-13T02:15:33.237Z,0
2019-01-13T02:16:32.720Z,0
2019-01-13T02:17:32.715Z,0
2019-01-13T02:18:32.703Z,0
2019-01-13T02:19:32.730Z,0
2019-01-13T02:20:32.943Z,0
2019-01-13T02:21:33.179Z,0
2019-01-13T02:22:32.678Z,0
2019-01-13T02:23:32.908Z,0
2019-01-13T02:24:32.911Z,0
2019-01-13T02:25:32.653Z,0
2019-01-13T02:26:32.889Z,0
2019-01-13T02:27:32.866Z,0
2019-01-13T02:28:32.611Z,0
2019-01-13T02:29:32.608Z,0
2019-01-13T02:30:33.168Z,0
2019-01-13T02:31:32.628Z,0
2019-01-13T02:32:33.075Z,0
2019-01-13T02:33:32.815Z,0
2019-01-13T02:34:32.551Z,0
2019-01-13T02:35:33.087Z,0
2019-01-13T02:36:33.292Z,0
2019-01-13T02:37:32.544Z,0
2019-01-13T02:38:33.056Z,0
2019-01-13T02:39:32.268Z,0
2019-01-13T02:40:32.523Z,0
2019-01-13T02:41:33.041Z,0
2019-01-13T02:42:32.755Z,0
2019-01-13T02:43:32.769Z,0
2019-01-13T02:44:32.532Z,0
2019-01-13T02:45:32.462Z,0
2019-01-13T02:46:32.730Z,0
2019-01-13T02:47:32.935Z,0
2019-01-13T02:48:32.933Z,0
2019-01-13T02:49:32.676Z,0
2019-01-13T02:50:32.422Z,0
2019-01-13T02:51:33.280Z,0
2019-01-13T02:52:32.655Z,0
2019-01-13T02:53:32.677Z,0
2019-01-13T02:54:32.412Z,0
2019-01-13T02:55:32.409Z,0
2019-01-13T02:56:32.405Z,0
2019-01-13T02:57:32.875Z,0
2019-01-13T02:58:32.618Z,0
2019-01-13T02:59:32.601Z,0
2019-01-13T03:00:32.572Z,0
2019-01-13T03:01:32.341Z,0
2019-01-13T03:02:32.831Z,0
2019-01-13T03:03:32.341Z,0
2019-01-13T03:04:32.588Z,0
2019-01-13T03:05:32.318Z,0
2019-01-13T03:06:32.534Z,0
2019-01-13T03:07:32.528Z,0
2019-01-13T03:08:32.261Z,0
2019-01-13T03:09:32.262Z,0
2019-01-13T03:10:32.516Z,0
2019-01-13T03:11:32.741Z,0
2019-01-13T03:12:32.494Z,0
2019-01-13T03:13:32.218Z,0
2019-01-13T03:14:32.471Z,0
2019-01-13T03:15:32.728Z,0
2019-01-13T03:16:32.475Z,0
2019-01-13T03:17:32.435Z,0
2019-01-13T03:18:32.167Z,0
2019-01-13T03:19:32.668Z,0
2019-01-13T03:20:32.673Z,0
2019-01-13T03:21:32.680Z,0
2019-01-13T03:22:32.143Z,0
2019-01-13T03:23:32.196Z,0
2019-01-13T03:24:32.360Z,0
2019-01-13T03:25:32.386Z,0
2019-01-13T03:26:32.608Z,0
2019-01-13T03:27:32.357Z,0
2019-01-13T03:28:32.327Z,0
2019-01-13T03:29:32.320Z,0
2019-01-13T03:30:32.586Z,0
2019-01-13T03:31:32.328Z,0
2019-01-13T03:32:32.305Z,0
2019-01-13T03:33:32.550Z,0
2019-01-13T03:34:32.568Z,0
2019-01-13T03:35:32.521Z,0
2019-01-13T03:36:32.510Z,0
2019-01-13T03:37:32.256Z,0
2019-01-13T03:38:32.488Z,0
2019-01-13T03:39:32.264Z,0
2019-01-13T03:40:31.978Z,0
2019-01-13T03:41:32.234Z,0
2019-01-13T03:42:32.444Z,0
2019-01-13T03:43:32.185Z,0
2019-01-13T03:44:32.021Z,0
2019-01-13T03:45:33.377Z,0
2019-01-13T03:46:32.169Z,0
2019-01-13T03:47:32.155Z,0
2019-01-13T03:48:32.152Z,0
2019-01-13T03:49:32.384Z,0
2019-01-13T03:50:32.131Z,0
2019-01-13T03:51:32.118Z,0
2019-01-13T03:52:31.851Z,0
2019-01-13T03:53:32.341Z,0
2019-01-13T03:54:32.333Z,0
2019-01-13T03:55:32.333Z,0
2019-01-13T03:56:32.095Z,0
2019-01-13T03:57:32.066Z,0
2019-01-13T03:58:32.314Z,0
2019-01-13T03:59:32.280Z,0
2019-01-13T04:00:32.284Z,0
2019-01-13T04:01:32.293Z,0
2019-01-13T04:02:32.051Z,0
2019-01-13T04:03:32.285Z,0
2019-01-13T04:04:32.232Z,0
2019-01-13T04:05:32.256Z,0
2019-01-13T04:06:32.492Z,0
2019-01-13T04:07:32.199Z,0
2019-01-13T04:08:32.204Z,0
2019-01-13T04:09:31.948Z,0
2019-01-13T04:10:31.936Z,0
2019-01-13T04:11:31.933Z,0
2019-01-13T04:12:31.934Z,0
2019-01-13T04:13:31.905Z,0
2019-01-13T04:14:32.147Z,0
2019-01-13T04:15:31.879Z,0
2019-01-13T04:16:32.121Z,0
2019-01-13T04:17:31.622Z,0
2019-01-13T04:18:32.100Z,0
2019-01-13T04:19:32.104Z,0
2019-01-13T04:20:31.603Z,0
2019-01-13T04:21:32.065Z,0
2019-01-13T04:22:32.058Z,0
2019-01-13T04:23:31.834Z,0
2019-01-13T04:24:32.049Z,0
2019-01-13T04:25:32.043Z,0
2019-01-13T04:26:31.811Z,0
2019-01-13T04:27:31.776Z,0
2019-01-13T04:28:32.017Z,0
2019-01-13T04:29:32.005Z,0
2019-01-13T04:30:31.749Z,0
2019-01-13T04:31:34.138Z,0
2019-01-13T04:32:32.015Z,0
2019-01-13T04:33:31.740Z,0
2019-01-13T04:34:31.707Z,0
2019-01-13T04:35:31.951Z,0
2019-01-13T04:36:31.943Z,0
2019-01-13T04:37:31.700Z,0
2019-01-13T04:38:31.675Z,0
2019-01-13T04:39:31.730Z,0
2019-01-13T04:40:31.649Z,0
2019-01-13T04:41:31.676Z,0
2019-01-13T04:42:31.884Z,0
2019-01-13T04:43:31.617Z,0
2019-01-13T04:44:31.617Z,0
2019-01-13T04:45:31.629Z,0
2019-01-13T04:46:31.592Z,0
2019-01-13T04:47:31.595Z,0
2019-01-13T04:48:31.581Z,0
2019-01-13T04:49:31.569Z,0
2019-01-13T04:50:31.311Z,0
2019-01-13T04:51:31.814Z,0
2019-01-13T04:52:31.795Z,0
2019-01-13T04:53:31.811Z,0
2019-01-13T04:54:31.266Z,0
2019-01-13T04:55:31.526Z,0
2019-01-13T04:56:31.802Z,0
2019-01-13T04:57:31.522Z,0
2019-01-13T04:58:31.498Z,0
2019-01-13T04:59:31.484Z,0
2019-01-13T05:00:31.477Z,0
2019-01-13T05:01:39.380Z,0
2019-01-13T05:02:31.481Z,0
2019-01-13T05:03:31.726Z,0
2019-01-13T05:04:31.695Z,0
2019-01-13T05:05:31.423Z,0
2019-01-13T05:06:31.217Z,0
2019-01-13T05:07:31.914Z,0
2019-01-13T05:08:31.418Z,0
2019-01-13T05:09:31.402Z,0
2019-01-13T05:10:31.642Z,0
2019-01-13T05:11:31.658Z,0
2019-01-13T05:12:32.670Z,0
2019-01-13T05:13:31.122Z,0
2019-01-13T05:14:31.132Z,0
2019-01-13T05:15:31.348Z,0
2019-01-13T05:16:31.096Z,0
2019-01-13T05:17:31.588Z,0
2019-01-13T05:18:31.327Z,0
2019-01-13T05:19:31.559Z,0
2019-01-13T05:20:31.315Z,0
2019-01-13T05:21:31.290Z,0
2019-01-13T05:22:31.314Z,0
2019-01-13T05:23:31.285Z,0
2019-01-13T05:24:31.508Z,0
2019-01-13T05:25:31.021Z,0
2019-01-13T05:26:31.546Z,0
2019-01-13T05:27:31.253Z,0
2019-01-13T05:28:31.496Z,0
2019-01-13T05:29:31.251Z,0
2019-01-13T05:30:31.472Z,0
2019-01-13T05:31:30.961Z,0
2019-01-13T05:32:31.201Z,0
2019-01-13T05:33:31.195Z,0
2019-01-13T05:34:30.949Z,0
2019-01-13T05:35:31.186Z,0
2019-01-13T05:36:31.209Z,0
2019-01-13T05:37:31.399Z,0
2019-01-13T05:38:30.659Z,0
2019-01-13T05:39:31.408Z,0
2019-01-13T05:40:31.142Z,0
2019-01-13T05:41:31.119Z,0
2019-01-13T05:42:30.614Z,0
2019-01-13T05:43:31.359Z,0
2019-01-13T05:44:31.340Z,0
2019-01-13T05:45:31.336Z,0
2019-01-13T05:46:31.089Z,0
2019-01-13T05:47:30.816Z,0
2019-01-13T05:48:31.074Z,0
2019-01-13T05:49:31.300Z,0
2019-01-13T05:50:31.322Z,0
2019-01-13T05:51:30.776Z,0
2019-01-13T05:52:31.032Z,0
2019-01-13T05:53:30.773Z,0
2019-01-13T05:54:30.993Z,0
2019-01-13T05:55:30.768Z,0
2019-01-13T05:56:31.349Z,0
2019-01-13T05:57:30.475Z,0
2019-01-13T05:58:30.477Z,0
2019-01-13T05:59:30.714Z,0
2019-01-13T06:00:31.184Z,0
2019-01-13T06:01:30.942Z,0
2019-01-13T06:02:31.181Z,0
2019-01-13T06:03:30.948Z,0
2019-01-13T06:04:30.917Z,0
2019-01-13T06:05:30.663Z,0
2019-01-13T06:06:30.668Z,0
2019-01-13T06:07:31.441Z,0
2019-01-13T06:08:30.626Z,0
2019-01-13T06:09:30.868Z,0
2019-01-13T06:10:30.863Z,0
2019-01-13T06:11:30.859Z,0
2019-01-13T06:12:30.588Z,0
2019-01-13T06:13:30.585Z,0
2019-01-13T06:14:31.067Z,0
2019-01-13T06:15:30.866Z,0
2019-01-13T06:16:30.816Z,0
2019-01-13T06:17:30.572Z,0
2019-01-13T06:18:30.786Z,0
2019-01-13T06:19:31.029Z,0
2019-01-13T06:20:31.022Z,0
2019-01-13T06:21:30.515Z,0
2019-01-13T06:22:30.491Z,0
2019-01-13T06:23:30.734Z,0
2019-01-13T06:24:30.974Z,0
2019-01-13T06:25:30.736Z,0
2019-01-13T06:26:30.221Z,0
2019-01-13T06:27:30.729Z,0
2019-01-13T06:28:30.957Z,0
2019-01-13T06:29:30.776Z,0
2019-01-13T06:30:30.689Z,0
2019-01-13T06:31:30.674Z,0
2019-01-13T06:32:30.688Z,0
2019-01-13T06:33:30.663Z,0
2019-01-13T06:34:30.412Z,0
2019-01-13T06:35:30.894Z,0
2019-01-13T06:36:30.644Z,0
2019-01-13T06:37:31.167Z,0
2019-01-13T06:38:30.632Z,0
2019-01-13T06:39:30.359Z,0
2019-01-13T06:40:30.586Z,0
2019-01-13T06:41:30.584Z,0
2019-01-13T06:42:30.819Z,0
2019-01-13T06:43:30.569Z,4
2019-01-13T06:44:30.603Z,4
2019-01-13T06:45:30.294Z,0
2019-01-13T06:46:30.288Z,4
2019-01-13T06:47:30.304Z,4
2019-01-13T06:48:30.301Z,4
2019-01-13T06:49:30.293Z,8
2019-01-13T06:50:30.775Z,8
2019-01-13T06:51:30.801Z,8
2019-01-13T06:52:30.495Z,8
2019-01-13T06:53:29.985Z,12
2019-01-13T06:54:30.226Z,16
2019-01-13T06:55:30.212Z,16
2019-01-13T06:56:30.201Z,24
2019-01-13T06:57:30.469Z,24
2019-01-13T06:58:30.705Z,28
2019-01-13T06:59:30.428Z,36
2019-01-13T07:00:30.201Z,36
2019-01-13T07:01:30.175Z,40
2019-01-13T07:02:30.151Z,52
2019-01-13T07:03:30.648Z,60
2019-01-13T07:04:30.656Z,72
2019-01-13T07:05:30.381Z,80
2019-01-13T07:06:30.634Z,92
2019-01-13T07:07:30.365Z,100
2019-01-13T07:08:31.387Z,112
2019-01-13T07:09:30.346Z,120
2019-01-13T07:10:30.576Z,128
2019-01-13T07:11:30.581Z,140
2019-01-13T07:12:30.333Z,148
2019-01-13T07:13:30.308Z,160
2019-01-13T07:14:30.327Z,164
2019-01-13T07:15:30.297Z,168
2019-01-13T07:16:30.538Z,172
2019-01-13T07:17:30.579Z,176
2019-01-13T07:18:30.498Z,188
2019-01-13T07:19:30.495Z,196
2019-01-13T07:20:30.494Z,208
2019-01-13T07:21:29.982Z,212
2019-01-13T07:22:29.731Z,208
2019-01-13T07:23:30.451Z,204
2019-01-13T07:24:30.012Z,200
2019-01-13T07:25:30.185Z,196
2019-01-13T07:26:30.462Z,188
2019-01-13T07:27:30.414Z,180
2019-01-13T07:28:30.165Z,180
2019-01-13T07:29:29.935Z,172
2019-01-13T07:30:30.154Z,168
2019-01-13T07:31:30.122Z,164
2019-01-13T07:32:29.614Z,176
2019-01-13T07:33:30.122Z,192
2019-01-13T07:34:30.355Z,208
2019-01-13T07:35:30.112Z,232
2019-01-13T07:36:29.847Z,252
2019-01-13T07:37:30.070Z,276
2019-01-13T07:38:31.627Z,304
2019-01-13T07:39:29.863Z,336
2019-01-13T07:40:29.828Z,372
2019-01-13T07:41:29.813Z,396
2019-01-13T07:42:29.784Z,408
2019-01-13T07:43:29.541Z,412
2019-01-13T07:44:30.097Z,424
2019-01-13T07:45:30.266Z,444
2019-01-13T07:46:29.805Z,464
2019-01-13T07:47:29.752Z,456
2019-01-13T07:48:31.041Z,428
2019-01-13T07:49:30.236Z,416
2019-01-13T07:50:29.983Z,436
2019-01-13T07:51:29.971Z,504
2019-01-13T07:52:29.988Z,572
2019-01-13T07:53:29.948Z,592
2019-01-13T07:54:29.692Z,572
2019-01-13T07:55:29.460Z,552
2019-01-13T07:56:30.165Z,560
2019-01-13T07:57:30.196Z,600
2019-01-13T07:58:29.918Z,644
2019-01-13T07:59:29.435Z,680
2019-01-13T08:00:29.654Z,708
2019-01-13T08:01:30.127Z,728
2019-01-13T08:02:30.124Z,756
2019-01-13T08:03:29.878Z,784
2019-01-13T08:04:30.165Z,800
2019-01-13T08:05:29.617Z,788
2019-01-13T08:06:29.864Z,752
2019-01-13T08:07:29.364Z,732
2019-01-13T08:08:30.105Z,728
2019-01-13T08:09:29.824Z,716
2019-01-13T08:10:29.819Z,700
2019-01-13T08:11:29.828Z,700
2019-01-13T08:12:29.808Z,704
2019-01-13T08:13:29.564Z,728
2019-01-13T08:14:29.787Z,756
2019-01-13T08:15:29.789Z,776
2019-01-13T08:16:30.005Z,796
2019-01-13T08:17:29.483Z,804
2019-01-13T08:18:29.495Z,820
2019-01-13T08:19:29.728Z,816
2019-01-13T08:20:29.730Z,772
2019-01-13T08:21:29.720Z,716
2019-01-13T08:22:29.206Z,696
2019-01-13T08:23:29.948Z,692
2019-01-13T08:24:29.424Z,668
2019-01-13T08:25:29.423Z,612
2019-01-13T08:26:29.919Z,576
2019-01-13T08:27:29.672Z,584
2019-01-13T08:28:29.137Z,644
2019-01-13T08:29:29.646Z,728
2019-01-13T08:30:29.385Z,792
2019-01-13T08:31:29.374Z,840
2019-01-13T08:32:31.830Z,912
2019-01-13T08:33:29.869Z,996
2019-01-13T08:34:29.855Z,1100
2019-01-13T08:35:29.865Z,1176
2019-01-13T08:36:29.090Z,1176
2019-01-13T08:37:29.575Z,1188
2019-01-13T08:38:29.799Z,1196
2019-01-13T08:39:30.891Z,1200
2019-01-13T08:40:29.564Z,1244
2019-01-13T08:41:29.786Z,1324
2019-01-13T08:42:29.291Z,1428
2019-01-13T08:43:29.820Z,1444
2019-01-13T08:44:29.575Z,1368
2019-01-13T08:45:29.303Z,1264
2019-01-13T08:46:29.743Z,1188
2019-01-13T08:47:29.783Z,1108
2019-01-13T08:48:29.491Z,1036
2019-01-13T08:49:29.230Z,972
2019-01-13T08:50:29.489Z,964
2019-01-13T08:51:29.496Z,976
2019-01-13T08:52:29.456Z,1008
2019-01-13T08:53:29.191Z,1056
2019-01-13T08:54:29.441Z,1092
2019-01-13T08:55:29.448Z,1080
2019-01-13T08:56:29.402Z,1060
2019-01-13T08:57:29.427Z,1032
2019-01-13T08:58:29.427Z,992
2019-01-13T08:59:29.392Z,992
2019-01-13T09:00:29.387Z,1004
2019-01-13T09:01:29.647Z,996
2019-01-13T09:02:34.636Z,952
2019-01-13T09:03:29.625Z,888
2019-01-13T09:04:29.176Z,804
2019-01-13T09:05:29.356Z,744
2019-01-13T09:06:29.359Z,736
2019-01-13T09:07:29.590Z,772
2019-01-13T09:08:28.843Z,808
2019-01-13T09:09:30.177Z,836
2019-01-13T09:10:29.092Z,840
2019-01-13T09:11:29.324Z,832
2019-01-13T09:12:29.293Z,804
2019-01-13T09:13:29.287Z,792
2019-01-13T09:14:28.772Z,780
2019-01-13T09:15:29.266Z,792
2019-01-13T09:16:29.278Z,800
2019-01-13T09:17:28.996Z,804
2019-01-13T09:18:29.536Z,812
2019-01-13T09:19:29.207Z,812
2019-01-13T09:20:29.499Z,816
2019-01-13T09:21:29.485Z,820
2019-01-13T09:22:29.200Z,836
2019-01-13T09:23:29.193Z,844
2019-01-13T09:24:29.181Z,840
2019-01-13T09:25:28.942Z,820
2019-01-13T09:26:29.433Z,812
2019-01-13T09:27:29.182Z,792
2019-01-13T09:28:29.418Z,776
2019-01-13T09:29:29.177Z,748
2019-01-13T09:30:28.889Z,716
2019-01-13T09:31:29.117Z,672
2019-01-13T09:32:29.120Z,652
2019-01-13T09:33:29.114Z,640
2019-01-13T09:34:29.103Z,628
2019-01-13T09:35:29.353Z,624
2019-01-13T09:36:29.104Z,640
2019-01-13T09:37:29.083Z,672
2019-01-13T09:38:28.950Z,720
2019-01-13T09:39:31.570Z,768
2019-01-13T09:40:29.060Z,824
2019-01-13T09:41:29.345Z,904
2019-01-13T09:42:28.801Z,972
2019-01-13T09:43:29.291Z,1020
2019-01-13T09:44:29.297Z,1068
2019-01-13T09:45:29.014Z,1100
2019-01-13T09:46:28.770Z,1124
2019-01-13T09:47:28.751Z,1148
2019-01-13T09:48:29.199Z,1180
2019-01-13T09:49:29.009Z,1196
2019-01-13T09:50:28.965Z,1204
2019-01-13T09:51:28.954Z,1168
2019-01-13T09:52:28.963Z,1132
2019-01-13T09:53:29.924Z,1076
2019-01-13T09:54:28.746Z,1036
2019-01-13T09:55:28.994Z,1000
2019-01-13T09:56:28.953Z,968
2019-01-13T09:57:28.901Z,968
2019-01-13T09:58:28.892Z,976
2019-01-13T09:59:28.905Z,968
2019-01-13T10:00:29.138Z,928
2019-01-13T10:01:28.871Z,876
2019-01-13T10:02:28.854Z,816
2019-01-13T10:03:28.610Z,780
2019-01-13T10:04:29.091Z,756
2019-01-13T10:05:28.606Z,740
2019-01-13T10:06:28.346Z,744
2019-01-13T10:07:29.062Z,776
2019-01-13T10:08:29.062Z,808
2019-01-13T10:09:31.451Z,840
2019-01-13T10:10:28.795Z,860
2019-01-13T10:11:28.795Z,884
2019-01-13T10:12:28.770Z,932
2019-01-13T10:13:29.010Z,984
2019-01-13T10:14:28.507Z,1012
2019-01-13T10:15:28.766Z,1012
2019-01-13T10:16:28.764Z,952
2019-01-13T10:17:28.482Z,876
2019-01-13T10:18:28.480Z,840
2019-01-13T10:19:28.720Z,812
2019-01-13T10:20:28.944Z,808
2019-01-13T10:21:28.691Z,800
2019-01-13T10:22:28.432Z,792
2019-01-13T10:23:28.930Z,756
2019-01-13T10:24:28.427Z,728
2019-01-13T10:25:28.902Z,736
2019-01-13T10:26:28.913Z,760
2019-01-13T10:27:28.932Z,784
2019-01-13T10:28:28.654Z,828
2019-01-13T10:29:28.887Z,844
2019-01-13T10:30:28.915Z,836
2019-01-13T10:31:28.602Z,796
2019-01-13T10:32:28.339Z,752
2019-01-13T10:33:28.846Z,716
2019-01-13T10:34:28.838Z,704
2019-01-13T10:35:28.581Z,716
2019-01-13T10:36:28.573Z,744
2019-01-13T10:37:28.308Z,776
2019-01-13T10:38:28.295Z,796
2019-01-13T10:39:28.785Z,832
2019-01-13T10:40:28.771Z,848
2019-01-13T10:41:28.508Z,852
2019-01-13T10:42:28.497Z,836
2019-01-13T10:43:28.528Z,840
2019-01-13T10:44:28.246Z,844
2019-01-13T10:45:29.532Z,864
2019-01-13T10:46:28.471Z,876
2019-01-13T10:47:28.458Z,900
2019-01-13T10:48:30.354Z,936
2019-01-13T10:49:28.723Z,1004
2019-01-13T10:50:28.437Z,1084
2019-01-13T10:51:28.710Z,1124
2019-01-13T10:52:28.420Z,1160
2019-01-13T10:53:28.401Z,1224
2019-01-13T10:54:28.661Z,1328
2019-01-13T10:55:28.644Z,1412
2019-01-13T10:56:28.640Z,1476
2019-01-13T10:57:28.381Z,1540
2019-01-13T10:58:28.388Z,1548
2019-01-13T10:59:28.596Z,1492
2019-01-13T11:00:28.609Z,1444
2019-01-13T11:01:28.366Z,1452
2019-01-13T11:02:28.592Z,1500
2019-01-13T11:03:28.313Z,1528
2019-01-13T11:04:28.570Z,1564
2019-01-13T11:05:28.584Z,1620
2019-01-13T11:06:28.290Z,1672
2019-01-13T11:07:28.301Z,1708
2019-01-13T11:08:28.518Z,1740
2019-01-13T11:09:28.271Z,1784
2019-01-13T11:10:29.459Z,1776
2019-01-13T11:11:28.499Z,1700
2019-01-13T11:12:28.235Z,1624
2019-01-13T11:13:28.490Z,1572
2019-01-13T11:14:28.520Z,1552
2019-01-13T11:15:29.174Z,1604
2019-01-13T11:16:28.447Z,1712
2019-01-13T11:17:27.963Z,1872
2019-01-13T11:18:27.933Z,2036
2019-01-13T11:19:28.431Z,2152
2019-01-13T11:20:28.434Z,2160
2019-01-13T11:21:28.403Z,2104
2019-01-13T11:22:28.145Z,2016
2019-01-13T11:23:28.135Z,1988
2019-01-13T11:24:28.399Z,2032
2019-01-13T11:25:28.128Z,2076
2019-01-13T11:26:28.132Z,2100
2019-01-13T11:27:28.337Z,2076
2019-01-13T11:28:28.361Z,2016
2019-01-13T11:29:35.054Z,1920
2019-01-13T11:30:27.636Z,1824
2019-01-13T11:31:28.316Z,1692
2019-01-13T11:32:28.304Z,1584
2019-01-13T11:33:28.067Z,1484
2019-01-13T11:34:27.789Z,1464
2019-01-13T11:35:28.280Z,1516
2019-01-13T11:36:28.021Z,1572
2019-01-13T11:37:28.258Z,1592
2019-01-13T11:38:27.997Z,1644
2019-01-13T11:39:27.774Z,1724
2019-01-13T11:40:28.507Z,1828
2019-01-13T11:41:27.987Z,1964
2019-01-13T11:42:27.995Z,2152
2019-01-13T11:43:28.206Z,2316
2019-01-13T11:44:28.113Z,2456
2019-01-13T11:45:28.204Z,2520
2019-01-13T11:46:27.704Z,2448
2019-01-13T11:47:27.924Z,2284
2019-01-13T11:48:27.709Z,2100
2019-01-13T11:49:27.537Z,2016
2019-01-13T11:50:28.216Z,1964
2019-01-13T11:51:28.129Z,1900
2019-01-13T11:52:27.882Z,1816
2019-01-13T11:53:28.073Z,1764
2019-01-13T11:54:28.253Z,1672
2019-01-13T11:55:28.412Z,1568
2019-01-13T11:56:28.007Z,1544
2019-01-13T11:57:27.846Z,1516
2019-01-13T11:58:27.837Z,1464
2019-01-13T11:59:27.832Z,1416
2019-01-13T12:00:28.089Z,1376
2019-01-13T12:01:27.826Z,1324
2019-01-13T12:02:32.491Z,1272
2019-01-13T12:03:28.058Z,1268
2019-01-13T12:04:28.022Z,1312
2019-01-13T12:05:27.517Z,1336
2019-01-13T12:06:27.286Z,1400
2019-01-13T12:07:28.904Z,1472
2019-01-13T12:08:27.505Z,1528
2019-01-13T12:09:27.988Z,1468
2019-01-13T12:10:28.256Z,1416
2019-01-13T12:11:27.791Z,1428
2019-01-13T12:12:27.819Z,1484
2019-01-13T12:13:27.463Z,1524
2019-01-13T12:14:27.435Z,1464
2019-01-13T12:15:27.422Z,1472
2019-01-13T12:16:27.659Z,1532
2019-01-13T12:17:27.694Z,1500
2019-01-13T12:18:27.404Z,1396
2019-01-13T12:19:27.418Z,1276
2019-01-13T12:20:27.420Z,1248
2019-01-13T12:21:27.358Z,1304
2019-01-13T12:22:27.346Z,1316
2019-01-13T12:23:27.588Z,1280
2019-01-13T12:24:27.336Z,1228
2019-01-13T12:25:27.698Z,1188
2019-01-13T12:26:27.073Z,1204
2019-01-13T12:27:28.651Z,1168
2019-01-13T12:28:27.814Z,1124
2019-01-13T12:29:27.783Z,1104
2019-01-13T12:30:27.800Z,1060
2019-01-13T12:31:27.027Z,988
2019-01-13T12:32:27.519Z,884
2019-01-13T12:33:31.375Z,800
2019-01-13T12:34:27.520Z,756
2019-01-13T12:35:29.196Z,788
2019-01-13T12:36:27.031Z,848
2019-01-13T12:37:27.257Z,912
2019-01-13T12:38:27.257Z,924
2019-01-13T12:39:27.255Z,904
2019-01-13T12:40:27.190Z,880
2019-01-13T12:41:27.720Z,888
2019-01-13T12:42:27.519Z,876
2019-01-13T12:43:27.175Z,868
2019-01-13T12:44:27.423Z,816
2019-01-13T12:45:27.649Z,804
2019-01-13T12:46:27.135Z,856
2019-01-13T12:47:27.633Z,1016
2019-01-13T12:48:27.366Z,1160
2019-01-13T12:49:27.178Z,1192
2019-01-13T12:50:27.220Z,1132
2019-01-13T12:51:27.125Z,1088
2019-01-13T12:52:27.599Z,1172
2019-01-13T12:53:26.849Z,1216
2019-01-13T12:54:27.346Z,1208
2019-01-13T12:55:27.093Z,1228
2019-01-13T12:56:27.139Z,1288
2019-01-13T12:57:27.287Z,1456
2019-01-13T12:58:27.032Z,1520
2019-01-13T12:59:27.027Z,1416
2019-01-13T13:00:29.079Z,1336
2019-01-13T13:01:27.256Z,1288
2019-01-13T13:02:27.285Z,1256
2019-01-13T13:03:33.991Z,1236
2019-01-13T13:04:27.232Z,1212
2019-01-13T13:05:27.237Z,1172
2019-01-13T13:06:27.481Z,1108
2019-01-13T13:07:27.231Z,1056
2019-01-13T13:08:27.458Z,1048
2019-01-13T13:09:27.193Z,1096
2019-01-13T13:10:27.279Z,1144
2019-01-13T13:11:26.999Z,1164
2019-01-13T13:12:26.927Z,1096
2019-01-13T13:13:27.222Z,1040
2019-01-13T13:14:27.176Z,980
2019-01-13T13:15:27.157Z,940
2019-01-13T13:16:27.400Z,904
2019-01-13T13:17:26.912Z,856
2019-01-13T13:18:27.384Z,796
2019-01-13T13:19:26.918Z,748
2019-01-13T13:20:27.207Z,776
2019-01-13T13:21:26.856Z,728
2019-01-13T13:22:27.350Z,716
2019-01-13T13:23:26.835Z,672
2019-01-13T13:24:27.095Z,676
2019-01-13T13:25:34.212Z,704
2019-01-13T13:26:27.125Z,756
2019-01-13T13:27:27.047Z,796
2019-01-13T13:28:27.297Z,780
2019-01-13T13:29:27.035Z,772
2019-01-13T13:30:26.776Z,808
2019-01-13T13:31:26.789Z,856
2019-01-13T13:32:27.265Z,952
2019-01-13T13:33:27.254Z,1036
2019-01-13T13:34:27.248Z,1040
2019-01-13T13:35:27.019Z,1092
2019-01-13T13:36:26.483Z,1056
2019-01-13T13:37:26.465Z,912
2019-01-13T13:38:26.952Z,736
2019-01-13T13:39:27.189Z,664
2019-01-13T13:40:28.787Z,668
2019-01-13T13:41:27.241Z,728
2019-01-13T13:42:26.676Z,716
2019-01-13T13:43:26.936Z,700
2019-01-13T13:44:26.650Z,688
2019-01-13T13:45:26.411Z,644
2019-01-13T13:46:27.161Z,588
2019-01-13T13:47:26.900Z,564
2019-01-13T13:48:26.883Z,592
2019-01-13T13:49:27.115Z,636
2019-01-13T13:50:26.874Z,708
2019-01-13T13:51:26.364Z,760
2019-01-13T13:52:27.100Z,736
2019-01-13T13:53:26.835Z,812
2019-01-13T13:54:26.839Z,832
2019-01-13T13:55:26.857Z,788
2019-01-13T13:56:26.831Z,752
2019-01-13T13:57:27.053Z,720
2019-01-13T13:58:27.037Z,648
2019-01-13T13:59:26.540Z,640
2019-01-13T14:00:27.021Z,624
2019-01-13T14:01:26.522Z,636
2019-01-13T14:02:27.014Z,668
2019-01-13T14:03:26.506Z,684
2019-01-13T14:04:27.001Z,704
2019-01-13T14:05:26.490Z,708
2019-01-13T14:06:26.493Z,688
2019-01-13T14:07:26.964Z,692
2019-01-13T14:08:26.707Z,648
2019-01-13T14:09:26.439Z,680